Time;durP1;ratioP1;P1;durP2;ratioP2;P2;SDS_P1;SDS_P2;PMS_P1;PMS_P2;Temp;Humidity;BMP_temperature;BMP_pressure;BME280_temperature;BME280_humidity;BME280_pressure;Samples;Min_cycle;Max_cycle;Signal;HPM_P1;HPM_P2
2022/01/29 00:01:02;;;;;;;;;;;;;;;;;;4962660;28;19917;-89
2022/01/29 00:06:14;;;;;;;;;;;;;;;;;;4954669;29;19929;-86
2022/01/29 00:08:43;;;;;;;;;;;;;;;;;;4961715;28;20013;-85
2022/01/29 00:11:14;;;;;;;;;;;;;;;;;;4963190;28;19957;-90
2022/01/29 00:13:54;;;;;;;;;;;;;;;;;;4999728;28;20354;-87
2022/01/29 00:22:51;;;;;;;;;;;;;;;;;;4967731;29;19925;-88
2022/01/29 00:25:16;;;;;;;;;;;;;;;;;;4960151;29;19935;-88
2022/01/29 00:27:52;;;;;;;;;;;;;;;;;;4956265;29;19948;-88
2022/01/29 00:30:18;;;;;;;;;;;;;;;;;;4937134;29;19961;-85
2022/01/29 00:32:44;;;;;;;;;;;;;;;;;;4941051;29;20008;-87
2022/01/29 00:35:15;;;;;;;;;;;;;;;;;;4948587;29;19929;-88
2022/01/29 00:37:47;;;;;;;;;;;;;;;;;;4938594;29;20268;-89
2022/01/29 00:40:24;;;;;;;;;;;;;;;;;;4954682;28;19957;-88
2022/01/29 00:42:50;;;;;;;;;;;;;;;;;;4954130;29;19919;-87
2022/01/29 00:45:33;;;;;;;;;;;;;;;;;;4937741;29;20406;-92
2022/01/29 00:48:02;;;;;;;;;;;;;;;;;;4953943;29;19926;-89
2022/01/29 00:50:33;;;;;;;;;;;;;;;;;;4938287;29;20020;-91
2022/01/29 00:53:01;;;;;;;;;;;;;;;;;;4995669;28;20250;-89
2022/01/29 00:55:28;;;;;;;;;;;;;;;;;;5053866;28;20373;-90
2022/01/29 00:57:58;;;;;;;;;;;;;;;;;;5053999;28;20055;-90
2022/01/29 01:00:23;;;;;;;;;;;;;;;;;;5053993;28;19917;-89
2022/01/29 01:02:49;;;;;;;;;;;;;;;;;;5016584;28;19928;-88
2022/01/29 01:05:14;;;;;;;;;;;;;;;;;;5047556;28;19917;-91
2022/01/29 01:07:39;;;;;;;;;;;;;;;;;;5053949;28;19917;-90
2022/01/29 01:10:06;;;;;;;;;;;;;;;;;;5054483;28;19924;-92
2022/01/29 01:12:32;;;;;;;;;;;;;;;;;;5036854;28;19916;-92
2022/01/29 01:14:57;;;;;;;;;;;;;;;;;;5054436;28;19917;-90
2022/01/29 01:17:22;;;;;;;;;;;;;;;;;;5053943;28;19970;-93
2022/01/29 01:19:47;;;;;;;;;;;;;;;;;;5054502;28;19913;-90
2022/01/29 01:22:15;;;;;;;;;;;;;;;;;;5054535;28;19927;-91
2022/01/29 01:24:40;;;;;;;;;;;;;;;;;;5054452;28;20508;-89
2022/01/29 01:27:05;;;;;;;;;;;;;;;;;;5033357;28;20035;-90
2022/01/29 01:29:30;;;;;;;;;;;;;;;;;;5050942;28;19971;-91
2022/01/29 01:31:56;;;;;;;;;;;;;;;;;;5053782;28;20246;-86
2022/01/29 01:34:25;;;;;;;;;;;;;;;;;;5053790;28;20360;-91
2022/01/29 01:36:58;;;;;;;;;;;;;;;;;;5053786;28;19917;-89
2022/01/29 01:39:29;;;;;;;;;;;;;;;;;;5053930;28;20336;-90
2022/01/29 01:41:58;;;;;;;;;;;;;;;;;;5053725;28;19924;-90
2022/01/29 01:44:23;;;;;;;;;;;;;;;;;;5036435;28;19943;-89
2022/01/29 01:46:51;;;;;;;;;;;;;;;;;;5053861;28;19920;-91
2022/01/29 01:49:16;;;;;;;;;;;;;;;;;;5053718;28;19916;-94
2022/01/29 01:51:42;;;;;;;;;;;;;;;;;;5036185;28;20330;-90
2022/01/29 01:54:07;;;;;;;;;;;;;;;;;;5039557;28;20031;-91
2022/01/29 01:56:32;;;;;;;;;;;;;;;;;;5039605;28;19917;-92
2022/01/29 01:58:57;;;;;;;;;;;;;;;;;;5039554;28;19990;-86
2022/01/29 02:01:25;;;;;;;;;;;;;;;;;;5039350;28;19971;-90
2022/01/29 02:03:50;;;;;;;;;;;;;;;;;;5040812;28;19917;-91
2022/01/29 02:06:18;;;;;;;;;;;;;;;;;;5058442;28;19943;-90
2022/01/29 02:08:43;;;;;;;;;;;;;;;;;;5041567;28;19913;-91
2022/01/29 02:11:09;;;;;;;;;;;;;;;;;;5057876;28;19931;-88
2022/01/29 02:13:35;;;;;;;;;;;;;;;;;;5041778;28;19923;-89
2022/01/29 02:16:01;;;;;;;;;;;;;;;;;;5038818;28;19995;-90
2022/01/29 02:18:27;;;;;;;;;;;;;;;;;;5039396;28;20007;-89
2022/01/29 02:20:52;;;;;;;;;;;;;;;;;;5039619;28;20380;-89
2022/01/29 02:23:20;;;;;;;;;;;;;;;;;;5056477;28;19913;-89
2022/01/29 02:25:46;;;;;;;;;;;;;;;;;;5038790;28;20011;-88
2022/01/29 02:28:13;;;;;;;;;;;;;;;;;;5056434;28;19977;-84
2022/01/29 02:30:41;;;;;;;;;;;;;;;;;;5038378;28;20069;-86
2022/01/29 02:33:10;;;;;;;;;;;;;;;;;;5039405;28;19913;-90
2022/01/29 02:35:40;;;;;;;;;;;;;;;;;;5039103;28;19927;-92
2022/01/29 02:38:05;;;;;;;;;;;;;;;;;;5039280;28;19920;-90
2022/01/29 02:40:35;;;;;;;;;;;;;;;;;;5056236;28;19917;-91
2022/01/29 02:43:11;;;;;;;;;;;;;;;;;;5022804;28;19913;-90
2022/01/29 02:45:36;;;;;;;;;;;;;;;;;;5055213;28;19928;-88
2022/01/29 02:48:01;;;;;;;;;;;;;;;;;;5038719;28;20253;-86
2022/01/29 02:50:26;;;;;;;;;;;;;;;;;;5055952;28;19921;-90
2022/01/29 02:52:52;;;;;;;;;;;;;;;;;;5055369;28;19924;-91
2022/01/29 02:55:17;;;;;;;;;;;;;;;;;;5055571;28;19928;-89
2022/01/29 02:57:42;;;;;;;;;;;;;;;;;;5022258;28;19912;-89
2022/01/29 03:00:10;;;;;;;;;;;;;;;;;;5031585;28;19928;-90
2022/01/29 03:02:35;;;;;;;;;;;;;;;;;;5041260;28;19912;-86
2022/01/29 03:05:01;;;;;;;;;;;;;;;;;;5053711;28;19939;-89
2022/01/29 03:07:27;;;;;;;;;;;;;;;;;;5054736;28;19928;-90
2022/01/29 03:09:53;;;;;;;;;;;;;;;;;;5026592;28;20316;-87
2022/01/29 03:12:18;;;;;;;;;;;;;;;;;;5053336;28;19920;-91
2022/01/29 03:14:45;;;;;;;;;;;;;;;;;;5055245;28;19916;-91
2022/01/29 03:17:13;;;;;;;;;;;;;;;;;;5018450;28;19963;-90
2022/01/29 03:19:38;;;;;;;;;;;;;;;;;;5033127;28;19917;-89
2022/01/29 03:22:03;;;;;;;;;;;;;;;;;;5038056;28;19967;-92
2022/01/29 03:24:29;;;;;;;;;;;;;;;;;;5037682;28;20357;-88
2022/01/29 03:26:54;;;;;;;;;;;;;;;;;;5055359;28;19917;-92
2022/01/29 03:29:19;;;;;;;;;;;;;;;;;;5021234;28;19928;-89
2022/01/29 03:31:44;;;;;;;;;;;;;;;;;;5037393;28;19974;-88
2022/01/29 03:34:10;;;;;;;;;;;;;;;;;;5055178;28;19952;-92
2022/01/29 03:36:37;;;;;;;;;;;;;;;;;;5055177;28;19966;-89
2022/01/29 03:39:03;;;;;;;;;;;;;;;;;;5055467;28;19917;-87
2022/01/29 03:41:30;;;;;;;;;;;;;;;;;;5055173;28;20000;-90
2022/01/29 03:44:03;;;;;;;;;;;;;;;;;;5037326;28;20298;-90
2022/01/29 03:46:28;;;;;;;;;;;;;;;;;;5055080;28;19917;-90
2022/01/29 03:48:54;;;;;;;;;;;;;;;;;;5055271;28;19927;-87
2022/01/29 03:51:21;;;;;;;;;;;;;;;;;;5037612;28;20300;-88
2022/01/29 03:53:47;;;;;;;;;;;;;;;;;;5055109;28;19921;-85
2022/01/29 03:56:13;;;;;;;;;;;;;;;;;;5055025;28;19917;-84
2022/01/29 03:58:38;;;;;;;;;;;;;;;;;;5037329;28;19940;-89
2022/01/29 04:01:04;;;;;;;;;;;;;;;;;;5054005;28;19917;-88
2022/01/29 04:03:29;;;;;;;;;;;;;;;;;;5054605;28;19921;-86
2022/01/29 04:05:54;;;;;;;;;;;;;;;;;;5054791;28;19917;-90
2022/01/29 04:08:23;;;;;;;;;;;;;;;;;;5054525;28;19974;-86
2022/01/29 04:10:50;;;;;;;;;;;;;;;;;;5054725;28;19925;-85
2022/01/29 04:13:20;;;;;;;;;;;;;;;;;;5054253;28;19917;-86
2022/01/29 04:15:45;;;;;;;;;;;;;;;;;;5037543;28;19955;-86
2022/01/29 04:18:12;;;;;;;;;;;;;;;;;;5054173;28;19951;-86
2022/01/29 04:20:38;;;;;;;;;;;;;;;;;;5054612;28;19917;-83
2022/01/29 04:23:05;;;;;;;;;;;;;;;;;;5053686;28;19913;-83
2022/01/29 04:25:30;;;;;;;;;;;;;;;;;;5037123;28;20054;-88
2022/01/29 04:27:55;;;;;;;;;;;;;;;;;;5054652;28;20356;-88
2022/01/29 04:30:32;;;;;;;;;;;;;;;;;;5054396;28;19921;-87
2022/01/29 04:33:02;;;;;;;;;;;;;;;;;;5054191;28;19932;-89
2022/01/29 04:35:28;;;;;;;;;;;;;;;;;;5037872;28;19996;-85
2022/01/29 04:37:55;;;;;;;;;;;;;;;;;;5054312;28;19956;-88
2022/01/29 04:40:23;;;;;;;;;;;;;;;;;;5054198;28;19966;-88
2022/01/29 04:42:50;;;;;;;;;;;;;;;;;;5054256;28;19924;-87
2022/01/29 04:45:15;;;;;;;;;;;;;;;;;;5053271;28;19920;-85
2022/01/29 04:47:41;;;;;;;;;;;;;;;;;;5036649;28;19966;-87
2022/01/29 04:50:06;;;;;;;;;;;;;;;;;;5036468;28;19924;-84
2022/01/29 04:52:32;;;;;;;;;;;;;;;;;;5053932;28;19920;-87
2022/01/29 04:54:57;;;;;;;;;;;;;;;;;;5054088;28;19924;-86
2022/01/29 04:57:24;;;;;;;;;;;;;;;;;;5053506;28;19916;-84
2022/01/29 04:59:50;;;;;;;;;;;;;;;;;;5052731;28;20298;-87
2022/01/29 05:02:15;;;;;;;;;;;;;;;;;;5051425;28;19959;-84
2022/01/29 05:04:40;;;;;;;;;;;;;;;;;;5052055;28;19960;-87
2022/01/29 05:07:05;;;;;;;;;;;;;;;;;;5053399;28;19916;-86
2022/01/29 05:09:31;;;;;;;;;;;;;;;;;;5036305;28;19960;-86
2022/01/29 05:11:58;;;;;;;;;;;;;;;;;;5053501;28;20277;-87
2022/01/29 05:14:38;;;;;;;;;;;;;;;;;;5053965;28;19927;-91
2022/01/29 05:28:18;;;;;;;;;;;;;;;;;;5056882;28;19935;-86
2022/01/29 05:30:45;;;;;;;;;;;;;;;;;;5057633;28;19928;-88
2022/01/29 05:33:11;;;;;;;;;;;;;;;;;;5057633;28;19963;-85
2022/01/29 05:35:36;;;;;;;;;;;;;;;;;;5058426;28;19913;-90
2022/01/29 05:38:01;;;;;;;;;;;;;;;;;;5057979;28;19963;-89
2022/01/29 05:40:26;;;;;;;;;;;;;;;;;;5057620;28;19927;-91
2022/01/29 05:42:51;;;;;;;;;;;;;;;;;;5040163;28;20326;-90
2022/01/29 05:45:20;;;;;;;;;;;;;;;;;;5039929;28;19924;-89
2022/01/29 05:47:45;;;;;;;;;;;;;;;;;;5057808;28;19957;-92
2022/01/29 05:50:10;;;;;;;;;;;;;;;;;;5058128;28;19943;-87
2022/01/29 05:52:38;;;;;;;;;;;;;;;;;;5058013;28;20019;-91
2022/01/29 05:55:06;;;;;;;;;;;;;;;;;;5057649;28;20397;-91
2022/01/29 05:57:31;;;;;;;;;;;;;;;;;;5040450;28;19917;-87
2022/01/29 05:59:57;;;;;;;;;;;;;;;;;;5057709;28;19923;-92
2022/01/29 06:02:22;;;;;;;;;;;;;;;;;;5057861;28;20358;-87
2022/01/29 06:04:47;;;;;;;;;;;;;;;;;;5057248;28;19946;-89
2022/01/29 06:07:12;;;;;;;;;;;;;;;;;;5057520;28;19916;-88
2022/01/29 06:09:40;;;;;;;;;;;;;;;;;;5057115;28;19917;-87
2022/01/29 06:12:05;;;;;;;;;;;;;;;;;;5056826;28;20316;-87
2022/01/29 06:14:30;;;;;;;;;;;;;;;;;;5056562;28;19916;-88
2022/01/29 06:16:56;;;;;;;;;;;;;;;;;;5059189;28;19913;-85
2022/01/29 06:19:24;;;;;;;;;;;;;;;;;;5063106;28;19951;-86
2022/01/29 06:21:49;;;;;;;;;;;;;;;;;;5062760;28;20509;-91
2022/01/29 06:24:14;;;;;;;;;;;;;;;;;;5043261;28;19917;-87
2022/01/29 06:26:39;;;;;;;;;;;;;;;;;;5058631;28;20094;-89
2022/01/29 06:29:07;;;;;;;;;;;;;;;;;;5039136;28;20485;-88
2022/01/29 06:31:34;;;;;;;;;;;;;;;;;;5056158;28;20246;-89
2022/01/29 06:33:59;;;;;;;;;;;;;;;;;;5019495;28;19932;-90
2022/01/29 06:36:25;;;;;;;;;;;;;;;;;;5055465;28;19913;-88
2022/01/29 06:38:50;;;;;;;;;;;;;;;;;;5055491;28;19927;-90
2022/01/29 06:41:15;;;;;;;;;;;;;;;;;;5056203;28;19912;-89
2022/01/29 06:43:40;;;;;;;;;;;;;;;;;;5038896;28;20290;-88
2022/01/29 06:46:05;;;;;;;;;;;;;;;;;;5055818;28;19952;-88
2022/01/29 06:48:31;;;;;;;;;;;;;;;;;;5038380;28;19948;-85
2022/01/29 06:50:56;;;;;;;;;;;;;;;;;;5056268;28;19966;-90
2022/01/29 06:53:21;;;;;;;;;;;;;;;;;;5056040;28;19939;-87
2022/01/29 06:55:49;;;;;;;;;;;;;;;;;;5054498;28;19946;-85
2022/01/29 06:58:14;;;;;;;;;;;;;;;;;;5056021;28;20360;-87
2022/01/29 07:00:39;;;;;;;;;;;;;;;;;;5037989;28;19917;-87
2022/01/29 07:03:04;;;;;;;;;;;;;;;;;;5055902;28;19912;-85
2022/01/29 07:05:32;;;;;;;;;;;;;;;;;;5055121;28;20494;-88
2022/01/29 07:07:57;;;;;;;;;;;;;;;;;;5055780;28;19917;-87
2022/01/29 07:10:22;;;;;;;;;;;;;;;;;;5055597;28;20004;-87
2022/01/29 07:12:50;;;;;;;;;;;;;;;;;;5054920;28;19924;-85
2022/01/29 07:15:15;;;;;;;;;;;;;;;;;;5055101;28;20070;-84
2022/01/29 07:17:41;;;;;;;;;;;;;;;;;;5056699;28;19959;-86
2022/01/29 07:20:06;;;;;;;;;;;;;;;;;;5019811;28;20019;-88
2022/01/29 07:22:31;;;;;;;;;;;;;;;;;;5038421;28;19917;-88
2022/01/29 07:24:59;;;;;;;;;;;;;;;;;;5037829;28;19924;-88
2022/01/29 07:27:24;;;;;;;;;;;;;;;;;;5055364;28;19913;-88
2022/01/29 07:29:49;;;;;;;;;;;;;;;;;;5037026;28;19921;-89
2022/01/29 07:32:15;;;;;;;;;;;;;;;;;;5054346;28;19974;-86
2022/01/29 07:34:40;;;;;;;;;;;;;;;;;;5055451;28;20342;-91
2022/01/29 07:37:05;;;;;;;;;;;;;;;;;;5038231;28;20313;-90
2022/01/29 07:39:31;;;;;;;;;;;;;;;;;;5055460;28;19939;-90
2022/01/29 07:41:56;;;;;;;;;;;;;;;;;;5037509;28;19917;-88
2022/01/29 07:44:21;;;;;;;;;;;;;;;;;;5054973;28;19966;-87
2022/01/29 07:46:47;;;;;;;;;;;;;;;;;;5054112;28;19917;-88
2022/01/29 07:49:12;;;;;;;;;;;;;;;;;;5036575;28;19931;-89
2022/01/29 07:51:37;;;;;;;;;;;;;;;;;;5054158;28;19978;-88
2022/01/29 07:54:03;;;;;;;;;;;;;;;;;;5037289;28;19928;-90
2022/01/29 07:56:28;;;;;;;;;;;;;;;;;;5037699;28;19916;-89
2022/01/29 07:58:55;;;;;;;;;;;;;;;;;;5055247;28;20346;-90
2022/01/29 08:01:23;;;;;;;;;;;;;;;;;;5053664;28;19916;-89
2022/01/29 08:03:50;;;;;;;;;;;;;;;;;;5054603;28;19917;-90
2022/01/29 08:06:16;;;;;;;;;;;;;;;;;;5055466;28;20338;-89
2022/01/29 08:08:44;;;;;;;;;;;;;;;;;;5048257;28;20013;-89
2022/01/29 08:11:14;;;;;;;;;;;;;;;;;;5061555;28;19924;-90
2022/01/29 08:13:39;;;;;;;;;;;;;;;;;;5061272;28;19988;-90
2022/01/29 08:16:04;;;;;;;;;;;;;;;;;;5045523;28;19974;-91
2022/01/29 08:18:30;;;;;;;;;;;;;;;;;;5058627;28;19948;-88
2022/01/29 08:20:55;;;;;;;;;;;;;;;;;;5052119;28;19917;-90
2022/01/29 08:23:20;;;;;;;;;;;;;;;;;;5054140;28;20020;-87
2022/01/29 08:25:48;;;;;;;;;;;;;;;;;;5054065;28;19927;-88
2022/01/29 08:28:14;;;;;;;;;;;;;;;;;;5035156;28;19913;-89
2022/01/29 08:30:41;;;;;;;;;;;;;;;;;;5036202;28;19935;-90
2022/01/29 08:33:07;;;;;;;;;;;;;;;;;;5054161;28;19913;-92
2022/01/29 08:35:33;;;;;;;;;;;;;;;;;;5033774;28;19975;-88
2022/01/29 08:37:58;;;;;;;;;;;;;;;;;;5032293;28;19924;-91
2022/01/29 08:40:23;;;;;;;;;;;;;;;;;;5020697;28;19999;-90
2022/01/29 08:42:49;;;;;;;;;;;;;;;;;;5017364;28;19913;-90
2022/01/29 08:45:14;;;;;;;;;;;;;;;;;;5050563;28;19951;-90
2022/01/29 08:47:42;;;;;;;;;;;;;;;;;;5037151;28;19921;-87
2022/01/29 08:50:08;;;;;;;;;;;;;;;;;;5053854;28;19917;-91
2022/01/29 08:52:33;;;;;;;;;;;;;;;;;;5054343;28;19920;-93
2022/01/29 08:54:59;;;;;;;;;;;;;;;;;;5036968;28;19931;-92
2022/01/29 08:57:24;;;;;;;;;;;;;;;;;;5054252;28;20008;-90
2022/01/29 08:59:49;;;;;;;;;;;;;;;;;;5050407;28;19927;-87
2022/01/29 09:02:16;;;;;;;;;;;;;;;;;;5055296;28;19916;-87
2022/01/29 09:04:46;;;;;;;;;;;;;;;;;;5056818;28;19932;-88
2022/01/29 09:07:12;;;;;;;;;;;;;;;;;;5054013;28;20011;-91
2022/01/29 09:09:40;;;;;;;;;;;;;;;;;;5057792;28;20029;-91
2022/01/29 09:12:08;;;;;;;;;;;;;;;;;;5058324;28;19917;-93
2022/01/29 09:14:38;;;;;;;;;;;;;;;;;;5057616;28;19925;-90
2022/01/29 09:17:03;;;;;;;;;;;;;;;;;;5056321;28;19917;-93
2022/01/29 09:19:28;;;;;;;;;;;;;;;;;;5027545;28;20250;-95
2022/01/29 09:21:54;;;;;;;;;;;;;;;;;;5058592;28;19936;-90
2022/01/29 09:24:19;;;;;;;;;;;;;;;;;;5057562;28;19982;-91
2022/01/29 09:26:44;;;;;;;;;;;;;;;;;;5058146;28;20354;-95
2022/01/29 09:29:09;;;;;;;;;;;;;;;;;;5026028;28;19921;-95
2022/01/29 09:31:34;;;;;;;;;;;;;;;;;;5058802;28;19916;-93
2022/01/29 09:34:00;;;;;;;;;;;;;;;;;;5041303;28;19928;-90
2022/01/29 09:36:25;;;;;;;;;;;;;;;;;;5058750;28;19913;-95
2022/01/29 09:38:53;;;;;;;;;;;;;;;;;;5058682;28;19917;-88
2022/01/29 09:41:18;;;;;;;;;;;;;;;;;;5058787;28;20030;-93
2022/01/29 09:43:45;;;;;;;;;;;;;;;;;;5058374;28;19917;-88
2022/01/29 09:46:11;;;;;;;;;;;;;;;;;;5040985;28;19928;-94
2022/01/29 09:48:36;;;;;;;;;;;;;;;;;;5042143;28;19917;-89
2022/01/29 09:51:01;;;;;;;;;;;;;;;;;;5057929;28;19921;-93
2022/01/29 09:53:36;;;;;;;;;;;;;;;;;;5052495;28;19928;-92
2022/01/29 09:56:23;;;;;;;;;;;;;;;;;;5049057;28;19920;-90
2022/01/29 09:58:49;;;;;;;;;;;;;;;;;;5032490;28;20278;-94
2022/01/29 10:01:15;;;;;;;;;;;;;;;;;;5056346;28;19913;-90
2022/01/29 10:06:47;;;;;;;;;;;;;;;;;;4956633;28;19922;-89
2022/01/29 10:09:31;;;;;;;;;;;;;;;;;;4956441;29;19929;-89
2022/01/29 10:12:14;;;;;;;;;;;;;;;;;;4976013;28;20323;-88
2022/01/29 10:14:46;;;;;;;;;;;;;;;;;;4975329;28;19922;-85
2022/01/29 10:17:11;;;;;;;;;;;;;;;;;;4959054;28;19968;-89
2022/01/29 10:19:36;;;;;;;;;;;;;;;;;;4975754;28;19949;-85
2022/01/29 10:22:04;;;;;;;;;;;;;;;;;;4977979;28;20394;-86
2022/01/29 10:24:31;;;;;;;;;;;;;;;;;;4975784;28;19941;-87
2022/01/29 10:26:56;;;;;;;;;;;;;;;;;;4959353;28;19914;-83
2022/01/29 10:29:23;;;;;;;;;;;;;;;;;;4970744;28;19949;-87
2022/01/29 10:31:54;;;;;;;;;;;;;;;;;;4970498;28;19946;-87
2022/01/29 10:34:21;;;;;;;;;;;;;;;;;;4956647;28;19922;-86
2022/01/29 10:36:47;;;;;;;;;;;;;;;;;;4975197;28;20359;-88
2022/01/29 10:39:14;;;;;;;;;;;;;;;;;;4954047;28;20372;-88
2022/01/29 10:41:39;;;;;;;;;;;;;;;;;;4954422;28;19948;-86
2022/01/29 10:44:22;;;;;;;;;;;;;;;;;;5016753;28;20251;-86
2022/01/29 10:46:48;;;;;;;;;;;;;;;;;;5034212;28;20027;-89
2022/01/29 10:49:34;;;;;;;;;;;;;;;;;;5047553;28;19917;-86
2022/01/29 10:52:06;;;;;;;;;;;;;;;;;;5047794;28;20338;-87
2022/01/29 10:54:32;;;;;;;;;;;;;;;;;;5030529;28;20390;-87
2022/01/29 10:56:57;;;;;;;;;;;;;;;;;;5035238;28;20000;-88
2022/01/29 10:59:23;;;;;;;;;;;;;;;;;;5051333;28;20059;-88
2022/01/29 11:01:52;;;;;;;;;;;;;;;;;;5029527;28;19977;-91
2022/01/29 11:04:18;;;;;;;;;;;;;;;;;;5031668;28;19973;-88
2022/01/29 11:06:45;;;;;;;;;;;;;;;;;;5048263;28;20354;-89
2022/01/29 11:09:14;;;;;;;;;;;;;;;;;;5014469;28;20369;-93
2022/01/29 11:11:42;;;;;;;;;;;;;;;;;;5042551;28;19956;-91
2022/01/29 11:14:09;;;;;;;;;;;;;;;;;;5031609;28;20493;-90
2022/01/29 11:16:38;;;;;;;;;;;;;;;;;;5032143;28;19917;-82
2022/01/29 11:19:09;;;;;;;;;;;;;;;;;;5029240;28;20040;-86
2022/01/29 11:21:59;;;;;;;;;;;;;;;;;;5042666;28;19917;-86
2022/01/29 11:24:25;;;;;;;;;;;;;;;;;;5029480;28;19925;-86
2022/01/29 11:26:56;;;;;;;;;;;;;;;;;;5033781;28;20081;-85
2022/01/29 11:29:42;;;;;;;;;;;;;;;;;;5030809;28;19978;-88
2022/01/29 11:32:40;;;;;;;;;;;;;;;;;;5036443;28;19917;-84
2022/01/29 11:35:05;;;;;;;;;;;;;;;;;;5050599;28;19916;-88
2022/01/29 11:37:49;;;;;;;;;;;;;;;;;;5048169;28;20016;-85
2022/01/29 11:40:16;;;;;;;;;;;;;;;;;;5049339;28;19924;-83
2022/01/29 11:43:09;;;;;;;;;;;;;;;;;;5046340;28;19928;-83
2022/01/29 11:56:28;;;;;;;;;;;;;;;;;;6200301;22;2000323;-84
2022/01/29 11:59:13;;;;;;;;;;;;;;;;;;6284677;22;20283;-86
2022/01/29 12:01:38;;;;;;;;;;;;;;;;;;6259529;22;20326;-88
2022/01/29 12:04:03;;;;;;;;;;;;;;;;;;6285132;22;19911;-87
2022/01/29 12:06:34;;;;;;;;;;;;;;;;;;6284668;22;19907;-91
2022/01/29 12:12:16;;;;;;;;;;;;;;;;;;6286255;22;20326;-86
2022/01/29 12:14:44;;;;;;;;;;;;;;;;;;6285333;22;19922;-85
2022/01/29 12:17:09;;;;;;;;;;;;;;;;;;6285883;22;19935;-91
2022/01/29 12:19:42;;;;;;;;;;;;;;;;;;6286262;22;19914;-90
2022/01/29 12:22:27;;;;;;;;;;;;;;;;;;6260457;22;19941;-89
2022/01/29 12:24:56;;;;;;;;;;;;;;;;;;6285468;22;19939;-86
2022/01/29 12:27:44;;;;;;;;;;;;;;;;;;6285266;22;20176;-88
2022/01/29 12:30:43;;;;;;;;;;;;;;;;;;6286463;22;19922;-87
2022/01/29 12:33:33;;;;;;;;;;;;;;;;;;6254277;22;19907;-87
2022/01/29 12:36:05;;;;;;;;;;;;;;;;;;6286852;22;19929;-90
2022/01/29 12:38:37;;;;;;;;;;;;;;;;;;6259925;22;20372;-87
2022/01/29 12:41:09;;;;;;;;;;;;;;;;;;6259910;22;19915;-86
2022/01/29 12:43:38;;;;;;;;;;;;;;;;;;6285514;22;19907;-87
2022/01/29 12:49:11;;;;;;;;;;;;;;;;;;6286695;22;19922;-88
2022/01/29 12:51:50;;;;;;;;;;;;;;;;;;6260114;22;19907;-89
2022/01/29 12:54:16;;;;;;;;;;;;;;;;;;6285162;22;19918;-91
2022/01/29 12:56:50;;;;;;;;;;;;;;;;;;6279518;22;19938;-88
2022/01/29 12:59:18;;;;;;;;;;;;;;;;;;6278778;22;19954;-88
2022/01/29 13:01:44;;;;;;;;;;;;;;;;;;6252449;22;19919;-87
2022/01/29 13:04:19;;;;;;;;;;;;;;;;;;6279333;22;20052;-85
2022/01/29 13:06:48;;;;;;;;;;;;;;;;;;6252727;22;19908;-87
2022/01/29 13:09:37;;;;;;;;;;;;;;;;;;6252236;22;19908;-84
2022/01/29 13:12:07;;;;;;;;;;;;;;;;;;6278718;22;19907;-87
2022/01/29 13:14:39;;;;;;;;;;;;;;;;;;6277881;22;20265;-89
2022/01/29 13:17:22;;;;;;;;;;;;;;;;;;6252095;22;20283;-91
2022/01/29 13:19:47;;;;;;;;;;;;;;;;;;6279745;22;19907;-90
2022/01/29 13:22:13;;;;;;;;;;;;;;;;;;6278064;22;20003;-85
2022/01/29 13:24:47;;;;;;;;;;;;;;;;;;6252337;22;20010;-90
2022/01/29 13:27:24;;;;;;;;;;;;;;;;;;6253127;22;19942;-89
2022/01/29 13:29:57;;;;;;;;;;;;;;;;;;6249878;22;19963;-87
2022/01/29 13:32:46;;;;;;;;;;;;;;;;;;6249799;22;20279;-87
2022/01/29 13:35:17;;;;;;;;;;;;;;;;;;6279443;22;20238;-85
2022/01/29 13:37:43;;;;;;;;;;;;;;;;;;6252595;22;20192;-87
2022/01/29 13:40:18;;;;;;;;;;;;;;;;;;6252205;22;20000;-89
2022/01/29 13:42:56;;;;;;;;;;;;;;;;;;6277996;22;20037;-91
2022/01/29 13:45:23;;;;;;;;;;;;;;;;;;6252184;22;19930;-90
2022/01/29 13:47:58;;;;;;;;;;;;;;;;;;6278524;22;19918;-91
2022/01/29 13:50:23;;;;;;;;;;;;;;;;;;6278950;22;19907;-86
2022/01/29 13:53:07;;;;;;;;;;;;;;;;;;6279854;22;19926;-91
2022/01/29 13:55:51;;;;;;;;;;;;;;;;;;6252434;22;19912;-89
2022/01/29 13:58:41;;;;;;;;;;;;;;;;;;6252917;22;20180;-88
2022/01/29 14:01:06;;;;;;;;;;;;;;;;;;6281318;22;19907;-92
2022/01/29 14:03:40;;;;;;;;;;;;;;;;;;6290726;22;19947;-91
2022/01/29 14:18:56;;;;;;;;;;;;;;;;;;6184453;23;20224;-82
2022/01/29 14:21:52;;;;;;;;;;;;;;;;;;6184213;23;19912;-90
2022/01/29 14:24:45;;;;;;;;;;;;;;;;;;6185145;23;19912;-86
2022/01/29 14:30:16;;;;;;;;;;;;;;;;;;6095289;23;19962;-94
2022/01/29 14:32:42;;;;;;;;;;;;;;;;;;6096517;23;19924;-94
2022/01/29 14:35:08;;;;;;;;;;;;;;;;;;6094090;23;20270;-88
2022/01/29 14:40:43;;;;;;;;;;;;;;;;;;6067269;23;19916;-89
2022/01/29 14:46:10;;;;;;;;;;;;;;;;;;6044411;23;20278;-87
2022/01/29 14:48:53;;;;;;;;;;;;;;;;;;6076735;23;20273;-84
2022/01/29 14:51:19;;;;;;;;;;;;;;;;;;6072803;23;19917;-88
2022/01/29 14:53:46;;;;;;;;;;;;;;;;;;6096997;23;19909;-87
2022/01/29 14:59:14;;;;;;;;;;;;;;;;;;6096284;23;19920;-89
2022/01/29 15:01:39;;;;;;;;;;;;;;;;;;6096486;23;19917;-86
2022/01/29 15:04:09;;;;;;;;;;;;;;;;;;6096194;23;19918;-89
2022/01/29 15:06:35;;;;;;;;;;;;;;;;;;6124128;23;19987;-91
2022/01/29 15:09:00;;;;;;;;;;;;;;;;;;6185439;23;20332;-89
2022/01/29 15:11:26;;;;;;;;;;;;;;;;;;6185291;23;19920;-93
2022/01/29 15:13:51;;;;;;;;;;;;;;;;;;6160203;23;19922;-90
2022/01/29 15:16:19;;;;;;;;;;;;;;;;;;6189984;22;19924;-89
2022/01/29 15:18:45;;;;;;;;;;;;;;;;;;6277162;22;19907;-90
2022/01/29 15:21:15;;;;;;;;;;;;;;;;;;6277888;22;20333;-91
2022/01/29 15:23:40;;;;;;;;;;;;;;;;;;6252261;22;20259;-87
2022/01/29 15:26:05;;;;;;;;;;;;;;;;;;6279385;22;19907;-93
2022/01/29 15:28:31;;;;;;;;;;;;;;;;;;6278535;22;19911;-88
2022/01/29 15:30:58;;;;;;;;;;;;;;;;;;6252253;22;19990;-89
2022/01/29 15:33:24;;;;;;;;;;;;;;;;;;6278800;22;19922;-90
2022/01/29 15:35:49;;;;;;;;;;;;;;;;;;6252127;22;19907;-86
2022/01/29 15:38:14;;;;;;;;;;;;;;;;;;6252363;22;19919;-90
2022/01/29 15:43:47;;;;;;;;;;;;;;;;;;6153246;23;20323;-87
2022/01/29 15:46:21;;;;;;;;;;;;;;;;;;6236642;22;19935;-91
2022/01/29 16:10:24;;;;;;;;;;;;;;;;;;6065290;23;19932;-86
2022/01/29 16:13:08;;;;;;;;;;;;;;;;;;6041062;23;19984;-86
2022/01/29 16:15:35;;;;;;;;;;;;;;;;;;6064894;23;19910;-86
2022/01/29 16:21:04;;;;;;;;;;;;;;;;;;6035548;23;19924;-85
2022/01/29 16:24:06;;;;;;;;;;;;;;;;;;6066758;23;19941;-82
2022/01/29 16:26:35;;;;;;;;;;;;;;;;;;6066635;23;19913;-87
2022/01/29 16:29:06;;;;;;;;;;;;;;;;;;6066977;23;20257;-85
2022/01/29 16:31:31;;;;;;;;;;;;;;;;;;6020581;23;19914;-86
2022/01/29 16:34:02;;;;;;;;;;;;;;;;;;6074228;23;19988;-87
2022/01/29 16:36:28;;;;;;;;;;;;;;;;;;6156307;23;20388;-86
2022/01/29 16:38:53;;;;;;;;;;;;;;;;;;6155650;23;20006;-88
2022/01/29 16:41:18;;;;;;;;;;;;;;;;;;6156512;23;19909;-85
2022/01/29 16:43:52;;;;;;;;;;;;;;;;;;6195084;22;20207;-82
2022/01/29 16:46:17;;;;;;;;;;;;;;;;;;6279374;22;19973;-83
2022/01/29 16:48:42;;;;;;;;;;;;;;;;;;6279865;22;19911;-87
2022/01/29 16:51:10;;;;;;;;;;;;;;;;;;6252556;22;19911;-85
2022/01/29 16:53:38;;;;;;;;;;;;;;;;;;6278763;22;19914;-87
2022/01/29 16:56:36;;;;;;;;;;;;;;;;;;6279621;22;19907;-87
2022/01/29 16:59:02;;;;;;;;;;;;;;;;;;6277850;22;20027;-87
2022/01/29 17:01:27;;;;;;;;;;;;;;;;;;6253090;22;20287;-85
2022/01/29 17:03:54;;;;;;;;;;;;;;;;;;6280091;22;19918;-85
2022/01/29 17:06:20;;;;;;;;;;;;;;;;;;6279760;22;19907;-83
2022/01/29 17:08:48;;;;;;;;;;;;;;;;;;6278458;22;20288;-84
2022/01/29 17:11:32;;;;;;;;;;;;;;;;;;6279248;22;19916;-80
2022/01/29 17:13:58;;;;;;;;;;;;;;;;;;6242179;23;19966;-86
2022/01/29 17:16:23;;;;;;;;;;;;;;;;;;6279615;22;19915;-82
2022/01/29 17:18:48;;;;;;;;;;;;;;;;;;6279645;22;19908;-84
2022/01/29 17:21:13;;;;;;;;;;;;;;;;;;6280236;22;19914;-87
2022/01/29 17:23:39;;;;;;;;;;;;;;;;;;6280466;22;20207;-87
2022/01/29 17:26:06;;;;;;;;;;;;;;;;;;6280634;22;19907;-85
2022/01/29 17:28:31;;;;;;;;;;;;;;;;;;6278339;22;20333;-86
2022/01/29 17:30:57;;;;;;;;;;;;;;;;;;6251771;22;19907;-87
2022/01/29 17:33:22;;;;;;;;;;;;;;;;;;6277974;22;19907;-85
2022/01/29 17:35:48;;;;;;;;;;;;;;;;;;6279185;22;19915;-86
2022/01/29 17:38:17;;;;;;;;;;;;;;;;;;6278100;22;19946;-85
2022/01/29 17:40:43;;;;;;;;;;;;;;;;;;6252444;22;20206;-85
2022/01/29 17:43:08;;;;;;;;;;;;;;;;;;6279206;22;19965;-85
2022/01/29 17:45:36;;;;;;;;;;;;;;;;;;6279644;22;19950;-87
2022/01/29 17:48:01;;;;;;;;;;;;;;;;;;6278162;22;19908;-86
2022/01/29 17:50:26;;;;;;;;;;;;;;;;;;6278920;22;19950;-88
2022/01/29 17:52:51;;;;;;;;;;;;;;;;;;6278518;22;19918;-85
2022/01/29 17:55:19;;;;;;;;;;;;;;;;;;6277649;22;19919;-85
2022/01/29 17:57:44;;;;;;;;;;;;;;;;;;6277762;22;20298;-83
2022/01/29 18:06:26;;;;;;;;;;;;;;;;;;6278974;22;20286;-90
2022/01/29 18:08:55;;;;;;;;;;;;;;;;;;6278836;22;20689;-86
2022/01/29 18:11:20;;;;;;;;;;;;;;;;;;6277659;22;19950;-85
2022/01/29 18:13:45;;;;;;;;;;;;;;;;;;6277851;22;20295;-81
2022/01/29 18:16:13;;;;;;;;;;;;;;;;;;6279278;22;20377;-83
2022/01/29 18:18:39;;;;;;;;;;;;;;;;;;6251783;22;19915;-82
2022/01/29 18:21:29;;;;;;;;;;;;;;;;;;6278347;22;19970;-86
2022/01/29 18:23:57;;;;;;;;;;;;;;;;;;6251571;22;19922;-84
2022/01/29 18:26:24;;;;;;;;;;;;;;;;;;6278202;22;19965;-84
2022/01/29 18:28:49;;;;;;;;;;;;;;;;;;6275462;22;19960;-81
2022/01/29 18:31:14;;;;;;;;;;;;;;;;;;6277230;22;19965;-81
2022/01/29 18:33:44;;;;;;;;;;;;;;;;;;6276671;22;19918;-83